Time;durP1;ratioP1;P1;durP2;ratioP2;P2;SDS_P1;SDS_P2;PMS_P1;PMS_P2;Temp;Humidity;BMP_temperature;BMP_pressure;BME280_temperature;BME280_humidity;BME280_pressure;Samples;Min_cycle;Max_cycle;Signal;HPM_P1;HPM_P2
2023/04/07 00:00:04;;;;;;;0.80;0.80;;;;;;;2.71;49.10;100038.31;4944822;28;20053;-82
2023/04/07 00:02:37;;;;;;;0.80;0.80;;;;;;;2.59;49.15;100040.50;4971979;28;20297;-81
2023/04/07 00:05:05;;;;;;;0.80;0.80;;;;;;;2.55;49.49;100032.00;4972227;28;20051;-82
2023/04/07 00:07:32;;;;;;;0.80;0.80;;;;;;;2.55;49.59;100034.66;4971740;28;20053;-82
2023/04/07 00:10:10;;;;;;;0.70;0.70;;;;;;;2.49;49.83;100032.69;4951706;29;20054;-81
2023/04/07 00:12:38;;;;;;;0.70;0.70;;;;;;;2.45;49.88;100030.50;4952467;29;20138;-81
2023/04/07 00:15:06;;;;;;;0.80;0.80;;;;;;;2.46;49.72;100035.69;4952952;29;20059;-82
2023/04/07 00:17:33;;;;;;;0.82;0.82;;;;;;;2.45;49.86;100031.34;4935660;29;20047;-81
2023/04/07 00:20:00;;;;;;;0.77;0.77;;;;;;;2.46;49.68;100033.03;4952884;29;20051;-82
2023/04/07 00:22:27;;;;;;;0.90;0.90;;;;;;;2.44;49.95;100028.84;4952821;29;20106;-82
2023/04/07 00:24:54;;;;;;;0.70;0.70;;;;;;;2.44;49.81;100031.53;4935751;29;20134;-81
2023/04/07 00:27:22;;;;;;;0.82;0.82;;;;;;;2.47;49.65;100031.19;4954170;29;20502;-82
2023/04/07 00:29:49;;;;;;;0.80;0.80;;;;;;;2.45;49.74;100033.19;4946009;28;20046;-82
2023/04/07 00:32:16;;;;;;;0.73;0.73;;;;;;;2.42;49.81;100034.34;4954424;28;20047;-82
2023/04/07 00:34:43;;;;;;;0.80;0.80;;;;;;;2.44;49.78;100027.03;4954734;28;20055;-82
2023/04/07 00:37:10;;;;;;;0.80;0.80;;;;;;;2.43;50.07;100029.84;4972515;28;20051;-81
2023/04/07 00:39:37;;;;;;;0.80;0.80;;;;;;;2.37;50.07;100031.34;4955648;28;20058;-81
2023/04/07 00:42:07;;;;;;;0.70;0.70;;;;;;;2.30;50.13;100033.00;4982047;28;20070;-81
2023/04/07 00:44:34;;;;;;;0.80;0.80;;;;;;;2.30;50.10;100033.00;4993655;28;20059;-81
2023/04/07 00:47:01;;;;;;;0.80;0.80;;;;;;;2.28;50.16;100032.31;4975605;28;20089;-81
2023/04/07 00:49:28;;;;;;;0.82;0.82;;;;;;;2.25;50.27;100032.66;4991280;28;20050;-81
2023/04/07 00:51:57;;;;;;;0.90;0.90;;;;;;;2.23;50.32;100029.31;4989680;28;20129;-80
2023/04/07 00:54:24;;;;;;;0.90;0.90;;;;;;;2.22;50.62;100031.16;4957194;28;20543;-81
2023/04/07 01:00:05;;;;;;;0.80;0.80;;;;;;;2.18;50.37;100027.19;4893321;29;20048;-82
2023/04/07 01:02:41;;;;;;;0.90;0.90;;;;;;;2.15;50.56;100027.50;4893680;29;20054;-81
2023/04/07 01:05:50;;;;;;;0.60;0.60;;;;;;;2.16;50.64;100029.19;4893966;29;20048;-81
2023/04/07 01:08:29;;;;;;;0.70;0.70;;;;;;;2.05;50.66;100025.00;4881783;29;20060;-80
2023/04/07 01:11:07;;;;;;;0.77;0.77;;;;;;;1.99;51.18;100033.63;4903283;29;20140;-82
2023/04/07 01:14:01;;;;;;;0.80;0.80;;;;;;;2.04;50.75;100031.31;4912677;29;20087;-81
2023/04/07 01:16:49;;;;;;;0.90;0.90;;;;;;;2.01;51.06;100030.81;4913964;29;20150;-80
2023/04/07 01:19:38;;;;;;;0.90;0.90;;;;;;;2.04;50.88;100028.66;4912392;29;20052;-82
2023/04/07 01:22:14;;;;;;;0.80;0.80;;;;;;;1.99;51.04;100030.97;4912546;29;20059;-82
2023/04/07 01:24:55;;;;;;;0.80;0.80;;;;;;;1.93;51.19;100032.47;4897278;29;20062;-82
2023/04/07 01:27:34;;;;;;;0.80;0.80;;;;;;;1.93;51.28;100031.66;4881411;29;20059;-82
2023/04/07 01:30:02;;;;;;;0.80;0.80;;;;;;;1.89;51.52;100030.28;4913929;29;20066;-81
2023/04/07 01:32:30;;;;;;;0.90;0.90;;;;;;;1.84;51.51;100037.94;4896947;29;20152;-80
2023/04/07 01:34:58;;;;;;;0.90;0.90;;;;;;;1.79;51.78;100024.28;4881553;29;20058;-81
2023/04/07 01:37:26;;;;;;;0.75;0.75;;;;;;;1.72;52.08;100040.91;4896026;29;20058;-81
2023/04/07 01:39:53;;;;;;;0.90;0.90;;;;;;;1.63;52.51;100041.03;4896484;29;20060;-81
2023/04/07 01:42:20;;;;;;;0.82;0.82;;;;;;;1.61;52.68;100033.22;4913223;29;20048;-81
2023/04/07 01:44:49;;;;;;;0.80;0.80;;;;;;;1.59;53.02;100037.03;4917066;29;20056;-80
2023/04/07 01:47:18;;;;;;;0.90;0.90;;;;;;;1.56;53.16;100040.84;4885021;29;20063;-80
2023/04/07 01:49:47;;;;;;;0.88;0.88;;;;;;;1.58;52.96;100030.06;4900459;29;20059;-81
2023/04/07 01:52:15;;;;;;;0.90;0.90;;;;;;;1.56;53.33;100037.34;4899904;29;20067;-81
2023/04/07 01:54:43;;;;;;;0.90;0.90;;;;;;;1.49;53.54;100034.50;4915734;29;20055;-82
2023/04/07 01:57:10;;;;;;;0.85;0.85;;;;;;;1.46;53.66;100032.16;4917230;29;20138;-80
2023/04/07 01:59:40;;;;;;;1.00;1.00;;;;;;;1.46;53.89;100032.16;4926157;29;20064;-83
2023/04/07 02:02:08;;;;;;;0.90;0.90;;;;;;;1.40;54.00;100036.31;4934547;29;20055;-81
2023/04/07 02:04:46;;;;;;;0.80;0.80;;;;;;;1.39;54.24;100039.09;4935809;29;20055;-81
2023/04/07 02:07:21;;;;;;;0.85;0.85;;;;;;;1.25;54.30;100041.38;4903942;29;20051;-82
2023/04/07 02:09:50;;;;;;;0.80;0.80;;;;;;;1.20;54.75;100049.00;4876702;29;20052;-82
2023/04/07 02:12:17;;;;;;;0.90;0.90;;;;;;;1.20;54.89;100046.34;4880721;29;20076;-81
2023/04/07 02:14:57;;;;;;;0.80;0.80;;;;;;;1.19;54.95;100039.38;4897217;29;20143;-81
2023/04/07 02:17:26;;;;;;;0.80;0.80;;;;;;;1.15;55.00;100034.53;4896575;29;20076;-81
2023/04/07 02:20:19;;;;;;;0.82;0.82;;;;;;;1.16;55.19;100038.84;4880706;29;20086;-82
2023/04/07 02:22:47;;;;;;;0.80;0.80;;;;;;;1.07;55.29;100038.81;4914543;29;20115;-81
2023/04/07 02:25:28;;;;;;;0.80;0.80;;;;;;;1.05;55.47;100042.59;4915182;29;20083;-81
2023/04/07 02:27:59;;;;;;;0.80;0.80;;;;;;;0.99;55.72;100036.09;4900004;29;20067;-82
2023/04/07 02:30:27;;;;;;;0.80;0.80;;;;;;;0.98;55.86;100039.72;4899451;29;20052;-82
2023/04/07 02:32:55;;;;;;;0.70;0.70;;;;;;;0.94;55.76;100040.19;4899689;29;20120;-82
2023/04/07 02:35:22;;;;;;;0.80;0.80;;;;;;;0.90;55.93;100036.22;4916495;29;20083;-82
2023/04/07 02:37:49;;;;;;;0.70;0.70;;;;;;;0.86;56.31;100038.31;4914897;29;20044;-82
2023/04/07 02:40:16;;;;;;;0.80;0.80;;;;;;;0.83;56.34;100036.81;4899179;29;20432;-81
2023/04/07 02:42:43;;;;;;;0.90;0.90;;;;;;;0.82;56.70;100043.13;4916452;29;20074;-81
2023/04/07 02:45:11;;;;;;;0.82;0.82;;;;;;;0.82;56.77;100044.97;4916221;29;20055;-80
2023/04/07 02:47:38;;;;;;;0.85;0.85;;;;;;;0.80;56.49;100044.28;4944578;23;20074;-81
2023/04/07 02:50:06;;;;;;;0.70;0.70;;;;;;;0.77;56.71;100050.75;4937352;29;20388;-81
2023/04/07 02:52:34;;;;;;;1.00;1.00;;;;;;;0.72;57.04;100053.03;4938284;29;20049;-82
2023/04/07 02:55:08;;;;;;;0.80;0.80;;;;;;;0.72;56.98;100057.53;4939862;29;20078;-83
2023/04/07 02:57:35;;;;;;;0.80;0.80;;;;;;;0.73;57.11;100057.34;4921409;29;20039;-82
2023/04/07 03:00:07;;;;;;;0.80;0.80;;;;;;;0.69;57.17;100055.19;4935728;28;20545;-81
2023/04/07 03:02:50;;;;;;;1.00;1.00;;;;;;;0.68;57.40;100056.16;4955863;28;20054;-82
2023/04/07 03:05:18;;;;;;;0.80;0.80;;;;;;;0.71;57.28;100059.34;4955472;28;20078;-82
2023/04/07 03:07:45;;;;;;;0.80;0.80;;;;;;;0.69;57.61;100053.34;4955617;28;20043;-82
2023/04/07 03:10:13;;;;;;;1.00;1.00;;;;;;;0.72;57.31;100055.69;4940072;29;20127;-82
2023/04/07 03:12:40;;;;;;;0.90;0.90;;;;;;;0.73;57.53;100056.50;4933315;29;20059;-81
2023/04/07 03:15:07;;;;;;;0.90;0.90;;;;;;;0.72;57.74;100060.19;4917324;29;20138;-81
2023/04/07 03:17:35;;;;;;;0.80;0.80;;;;;;;0.71;57.60;100059.34;4888484;29;20048;-82
2023/04/07 03:20:04;;;;;;;0.80;0.80;;;;;;;0.74;57.66;100059.03;4936280;29;20055;-82
2023/04/07 03:22:34;;;;;;;0.65;0.65;;;;;;;0.84;57.46;100056.28;4936036;29;20047;-81
2023/04/07 03:25:01;;;;;;;1.00;1.00;;;;;;;0.99;57.36;100048.56;4904547;29;20046;-82
2023/04/07 03:27:28;;;;;;;0.90;0.90;;;;;;;1.07;56.75;100060.06;4953113;29;20055;-82
2023/04/07 03:29:56;;;;;;;0.80;0.80;;;;;;;1.04;56.97;100063.06;4936100;29;20051;-81
2023/04/07 03:32:25;;;;;;;0.73;0.73;;;;;;;0.97;56.98;100069.16;4920356;29;20122;-82
2023/04/07 03:34:52;;;;;;;0.80;0.80;;;;;;;0.94;57.12;100064.13;4936221;29;20103;-83
2023/04/07 03:37:20;;;;;;;0.90;0.90;;;;;;;0.95;57.13;100063.16;4951833;29;20051;-82
2023/04/07 03:39:47;;;;;;;0.90;0.90;;;;;;;0.98;57.21;100066.31;4968364;28;20130;-82
2023/04/07 03:42:24;;;;;;;0.90;0.90;;;;;;;1.02;56.92;100074.84;4972521;28;20422;-82
2023/04/07 03:44:58;;;;;;;0.80;0.80;;;;;;;1.08;57.19;100074.19;4954990;28;20510;-82
2023/04/07 03:47:25;;;;;;;0.90;0.90;;;;;;;1.10;56.90;100066.91;4955047;28;20045;-82
2023/04/07 03:49:56;;;;;;;0.80;0.80;;;;;;;1.17;56.74;100075.91;4940195;28;20058;-82
2023/04/07 03:52:23;;;;;;;0.80;0.80;;;;;;;1.19;56.87;100081.06;4971931;28;20490;-82
2023/04/07 03:55:22;;;;;;;0.70;0.70;;;;;;;1.24;56.87;100076.97;4996312;23;20046;-81
2023/04/07 03:57:55;;;;;;;0.90;0.90;;;;;;;1.25;56.67;100075.13;4911929;29;20089;-82
2023/04/07 04:00:26;;;;;;;1.00;1.00;;;;;;;1.26;56.55;100082.94;4911213;29;20052;-83
2023/04/07 04:03:15;;;;;;;0.80;0.80;;;;;;;1.39;56.48;100084.31;4897638;29;20054;-83
2023/04/07 04:06:00;;;;;;;1.00;1.00;;;;;;;1.48;56.08;100080.72;4881743;29;20071;-83
2023/04/07 04:08:30;;;;;;;0.80;0.80;;;;;;;1.54;55.78;100088.06;4912897;29;20132;-83
2023/04/07 04:11:01;;;;;;;0.90;0.90;;;;;;;1.60;55.45;100084.78;4928478;29;20126;-83
2023/04/07 04:13:35;;;;;;;0.85;0.85;;;;;;;1.65;55.43;100090.44;4909081;29;20059;-82
2023/04/07 04:16:04;;;;;;;0.80;0.80;;;;;;;1.73;55.08;100087.81;4936184;29;20139;-82
2023/04/07 04:18:38;;;;;;;0.80;0.80;;;;;;;1.80;55.07;100087.16;4937059;29;20458;-82
2023/04/07 04:21:07;;;;;;;0.90;0.90;;;;;;;1.78;54.70;100083.84;4935013;29;20043;-83
2023/04/07 04:23:36;;;;;;;0.90;0.90;;;;;;;1.86;54.71;100089.19;4587254;29;10000157;-83
2023/04/07 04:26:03;;;;;;;0.70;0.70;;;;;;;1.99;54.67;100094.88;4948449;29;20054;-81
2023/04/07 04:28:31;;;;;;;0.90;0.90;;;;;;;2.08;54.16;100093.09;4946790;29;20518;-81
2023/04/07 04:31:00;;;;;;;0.90;0.90;;;;;;;2.11;54.11;100080.25;4915527;29;20150;-83
2023/04/07 04:33:30;;;;;;;0.90;0.90;;;;;;;2.23;53.85;100099.44;4888281;29;20111;-82
2023/04/07 04:35:58;;;;;;;0.70;0.70;;;;;;;2.31;53.72;100094.13;4927545;29;20070;-80
2023/04/07 04:38:28;;;;;;;1.00;1.00;;;;;;;2.37;53.34;100098.78;4946490;29;20098;-82
2023/04/07 04:41:03;;;;;;;0.90;0.90;;;;;;;2.49;53.25;100096.63;4929227;29;20865;-81
2023/04/07 04:43:35;;;;;;;0.90;0.90;;;;;;;2.58;52.87;100100.13;4889114;29;20100;-82
2023/04/07 04:46:05;;;;;;;0.90;0.90;;;;;;;2.65;52.68;100092.31;4914505;29;20086;-82
2023/04/07 04:48:40;;;;;;;0.80;0.80;;;;;;;2.74;52.40;100096.66;4943062;29;20102;-80
2023/04/07 04:51:07;;;;;;;0.80;0.80;;;;;;;2.86;52.30;100105.13;4941946;29;20526;-82
2023/04/07 04:53:42;;;;;;;0.90;0.90;;;;;;;2.95;51.80;100109.47;4931340;29;20051;-83
2023/04/07 04:56:09;;;;;;;0.80;0.80;;;;;;;3.04;51.82;100105.78;4932066;29;20092;-83
2023/04/07 04:58:45;;;;;;;0.85;0.85;;;;;;;3.14;51.80;100108.25;4913599;29;20044;-83
2023/04/07 05:01:30;;;;;;;0.90;0.90;;;;;;;3.23;51.79;100117.91;4917324;29;20414;-83
2023/04/07 05:04:05;;;;;;;0.90;0.90;;;;;;;3.20;51.67;100107.59;4921662;29;20557;-82
2023/04/07 05:06:37;;;;;;;0.88;0.88;;;;;;;3.21;51.50;100103.91;4927802;29;20557;-84
2023/04/07 05:09:16;;;;;;;0.88;0.88;;;;;;;3.27;51.21;100111.25;4943582;29;20054;-82
2023/04/07 05:11:47;;;;;;;0.90;0.90;;;;;;;3.25;51.20;100103.41;4898388;29;20099;-81
2023/04/07 05:14:20;;;;;;;0.80;0.80;;;;;;;3.35;51.13;100107.72;4931002;29;20111;-80
2023/04/07 05:16:53;;;;;;;0.80;0.80;;;;;;;3.51;51.02;100122.84;4931775;29;20043;-81
2023/04/07 05:19:28;;;;;;;0.90;0.90;;;;;;;3.59;50.80;100125.50;4950331;29;20145;-82
2023/04/07 05:22:02;;;;;;;0.90;0.90;;;;;;;3.59;50.52;100130.84;4933363;29;20047;-81
2023/04/07 05:24:39;;;;;;;0.80;0.80;;;;;;;3.68;49.98;100125.31;4934512;29;20397;-80
2023/04/07 05:27:06;;;;;;;0.90;0.90;;;;;;;3.75;50.18;100120.13;4952281;29;20051;-81
2023/04/07 05:29:33;;;;;;;0.90;0.90;;;;;;;3.80;49.56;100128.44;4951273;29;20506;-82
2023/04/07 05:32:03;;;;;;;0.80;0.80;;;;;;;3.76;50.05;100111.09;4934642;29;20047;-81
2023/04/07 05:34:31;;;;;;;0.80;0.80;;;;;;;3.90;49.51;100121.06;4934005;29;20486;-80
2023/04/07 05:36:58;;;;;;;0.80;0.80;;;;;;;4.01;49.57;100119.00;4918324;29;20170;-80
2023/04/07 05:39:25;;;;;;;0.80;0.80;;;;;;;4.15;49.25;100134.25;4951474;29;20047;-80
2023/04/07 05:41:56;;;;;;;0.80;0.80;;;;;;;4.15;49.41;100118.22;4918024;29;20076;-80
2023/04/07 05:44:26;;;;;;;0.80;0.80;;;;;;;4.33;48.89;100129.50;4933916;29;20098;-80
2023/04/07 05:46:54;;;;;;;0.88;0.88;;;;;;;4.38;48.79;100120.09;4933940;29;20051;-80
2023/04/07 05:49:26;;;;;;;0.80;0.80;;;;;;;4.52;48.58;100130.06;4932873;29;20051;-80
2023/04/07 05:52:06;;;;;;;0.88;0.88;;;;;;;4.56;48.36;100126.84;4936296;29;20047;-79
2023/04/07 05:54:39;;;;;;;0.80;0.80;;;;;;;4.71;48.31;100132.25;4950206;29;20047;-79
2023/04/07 05:57:11;;;;;;;0.90;0.90;;;;;;;4.80;47.87;100126.84;4904417;29;20063;-81
2023/04/07 05:59:43;;;;;;;0.90;0.90;;;;;;;4.91;48.03;100129.06;4932024;29;20055;-81
2023/04/07 06:02:12;;;;;;;0.80;0.80;;;;;;;5.11;47.92;100140.94;4934189;29;20051;-81
2023/04/07 06:04:40;;;;;;;0.80;0.80;;;;;;;5.15;47.14;100136.88;4933515;29;20510;-80
2023/04/07 06:07:12;;;;;;;0.90;0.90;;;;;;;5.16;47.02;100135.88;4934281;29;20043;-79
2023/04/07 06:09:41;;;;;;;0.80;0.80;;;;;;;5.27;46.78;100148.00;4929601;29;20061;-82
2023/04/07 06:12:11;;;;;;;0.88;0.88;;;;;;;5.35;46.89;100141.72;4916325;29;20574;-83
2023/04/07 06:14:39;;;;;;;0.80;0.80;;;;;;;5.45;46.90;100147.66;4940755;29;20521;-79
2023/04/07 06:17:06;;;;;;;0.80;0.80;;;;;;;5.59;46.40;100144.13;4940316;29;20473;-83
2023/04/07 06:19:33;;;;;;;0.90;0.90;;;;;;;5.69;46.17;100149.22;4936885;29;20534;-80
2023/04/07 06:22:00;;;;;;;0.90;0.90;;;;;;;5.78;45.97;100147.28;4937653;29;20134;-80
2023/04/07 06:24:27;;;;;;;0.80;0.80;;;;;;;5.82;46.29;100136.03;4934551;29;20138;-80
2023/04/07 06:26:55;;;;;;;0.80;0.80;;;;;;;5.82;45.92;100146.75;4937570;29;20055;-80
2023/04/07 06:29:23;;;;;;;0.90;0.90;;;;;;;5.91;46.11;100147.47;4954569;28;20048;-81
2023/04/07 06:31:50;;;;;;;0.90;0.90;;;;;;;6.01;45.71;100148.03;4954554;29;20494;-80
2023/04/07 06:34:19;;;;;;;0.80;0.80;;;;;;;6.08;46.15;100150.81;4937372;29;20114;-81
2023/04/07 06:36:46;;;;;;;0.80;0.80;;;;;;;6.16;45.60;100144.50;4954342;29;20047;-80
2023/04/07 06:39:14;;;;;;;0.70;0.70;;;;;;;6.26;45.63;100145.88;4954302;29;20058;-81
2023/04/07 06:41:45;;;;;;;0.77;0.77;;;;;;;6.27;44.79;100150.19;4954302;29;20058;-81
2023/04/07 06:44:12;;;;;;;0.80;0.80;;;;;;;6.29;44.91;100152.69;4953025;29;20141;-82
2023/04/07 06:46:46;;;;;;;0.90;0.90;;;;;;;6.42;45.21;100150.16;4953970;29;20441;-81
2023/04/07 06:49:13;;;;;;;0.80;0.80;;;;;;;6.53;44.92;100159.56;4936932;29;20051;-81
2023/04/07 06:51:40;;;;;;;0.80;0.80;;;;;;;6.64;44.77;100152.88;4953840;29;20051;-82
2023/04/07 06:54:11;;;;;;;0.90;0.90;;;;;;;6.78;43.88;100149.28;4953197;29;20050;-81
2023/04/07 06:56:42;;;;;;;0.70;0.70;;;;;;;6.89;43.88;100154.16;4953114;29;20162;-82
2023/04/07 06:59:09;;;;;;;0.80;0.80;;;;;;;6.95;43.79;100147.19;4953651;29;20051;-81
2023/04/07 07:01:39;;;;;;;0.80;0.80;;;;;;;7.12;43.66;100142.38;4953901;29;20055;-81
2023/04/07 07:04:09;;;;;;;0.80;0.80;;;;;;;7.19;43.62;100151.31;4953863;29;20126;-80
2023/04/07 07:06:37;;;;;;;0.80;0.80;;;;;;;7.17;43.81;100150.69;4953957;29;20134;-83
2023/04/07 07:09:07;;;;;;;0.75;0.75;;;;;;;7.12;43.05;100145.88;4956790;29;20129;-81
2023/04/07 07:11:34;;;;;;;0.60;0.60;;;;;;;7.19;42.64;100153.16;4953996;29;20054;-81
2023/04/07 07:14:01;;;;;;;0.80;0.80;;;;;;;7.38;42.12;100152.47;4937737;29;20054;-81
2023/04/07 07:16:28;;;;;;;0.80;0.80;;;;;;;7.50;42.12;100155.47;4958557;29;20059;-82
2023/04/07 07:18:55;;;;;;;0.80;0.80;;;;;;;7.66;42.41;100157.00;4936308;29;20139;-82
2023/04/07 07:21:22;;;;;;;0.90;0.90;;;;;;;7.68;41.64;100154.97;4935813;29;20055;-82
2023/04/07 07:23:49;;;;;;;0.80;0.80;;;;;;;7.75;41.12;100155.84;4952365;29;20043;-82
2023/04/07 07:26:16;;;;;;;0.80;0.80;;;;;;;7.93;41.45;100160.69;4952465;29;20047;-81
2023/04/07 07:28:44;;;;;;;0.80;0.80;;;;;;;8.06;40.66;100160.75;4952340;29;20066;-82
2023/04/07 07:31:14;;;;;;;0.90;0.90;;;;;;;8.19;40.25;100152.72;4947771;29;20054;-81
2023/04/07 07:33:44;;;;;;;0.80;0.80;;;;;;;8.36;40.23;100155.91;4936448;29;20142;-81
2023/04/07 07:36:12;;;;;;;0.90;0.90;;;;;;;8.51;40.03;100163.84;4951593;29;20051;-82
2023/04/07 07:38:41;;;;;;;0.75;0.75;;;;;;;8.52;39.77;100161.97;4936282;29;20070;-81
2023/04/07 07:41:08;;;;;;;0.90;0.90;;;;;;;8.68;39.73;100159.75;4935415;29;20079;-81
2023/04/07 07:43:36;;;;;;;0.90;0.90;;;;;;;8.92;39.18;100156.69;4951399;29;20073;-82
2023/04/07 07:46:03;;;;;;;0.80;0.80;;;;;;;9.06;39.24;100153.78;4935978;29;20079;-81
2023/04/07 07:48:30;;;;;;;0.80;0.80;;;;;;;9.15;39.08;100157.09;4952986;29;20514;-82
2023/04/07 07:50:57;;;;;;;0.75;0.75;;;;;;;9.37;38.57;100157.72;4953020;29;20082;-82
2023/04/07 07:53:25;;;;;;;0.80;0.80;;;;;;;9.58;38.15;100155.84;4935525;29;20418;-81
2023/04/07 07:55:54;;;;;;;0.82;0.82;;;;;;;9.72;37.96;100154.75;4952413;29;20066;-82
2023/04/07 07:58:23;;;;;;;0.90;0.90;;;;;;;9.89;37.62;100147.84;4935151;29;20057;-82
2023/04/07 08:00:50;;;;;;;0.70;0.70;;;;;;;9.99;36.64;100144.72;4933112;29;20078;-82
2023/04/07 08:03:18;;;;;;;0.80;0.80;;;;;;;10.22;35.84;100148.78;4933649;29;20048;-81
2023/04/07 08:05:50;;;;;;;0.88;0.88;;;;;;;10.36;35.41;100151.25;4933660;29;20039;-81
2023/04/07 08:08:17;;;;;;;0.80;0.80;;;;;;;10.45;34.97;100145.59;4951248;29;20092;-81
2023/04/07 08:10:45;;;;;;;0.90;0.90;;;;;;;10.73;34.72;100146.03;4954855;29;20196;-81
2023/04/07 08:13:12;;;;;;;0.80;0.80;;;;;;;11.00;34.19;100143.16;4948400;29;20834;-81
2023/04/07 08:15:39;;;;;;;0.80;0.80;;;;;;;11.26;34.25;100155.63;4949960;29;20178;-81
2023/04/07 08:18:06;;;;;;;0.80;0.80;;;;;;;11.46;33.88;100142.75;4952186;29;20079;-81
2023/04/07 08:20:35;;;;;;;0.80;0.80;;;;;;;11.74;33.37;100148.72;4951990;29;20161;-81
2023/04/07 08:23:02;;;;;;;0.80;0.80;;;;;;;11.80;32.44;100145.13;4952372;29;20098;-80
2023/04/07 08:25:29;;;;;;;0.80;0.80;;;;;;;12.05;32.12;100143.22;4606520;28;10000430;-81
2023/04/07 08:28:00;;;;;;;0.80;0.80;;;;;;;12.44;31.77;100137.53;4916131;29;20098;-80
2023/04/07 08:30:27;;;;;;;0.88;0.88;;;;;;;12.69;31.29;100143.63;4946454;29;20059;-81
2023/04/07 08:32:55;;;;;;;0.90;0.90;;;;;;;12.96;31.01;100129.66;4949810;29;20501;-83
2023/04/07 08:35:22;;;;;;;0.90;0.90;;;;;;;12.83;31.36;100136.13;4932511;29;20760;-83
2023/04/07 08:37:49;;;;;;;0.80;0.80;;;;;;;13.22;30.56;100112.97;4950690;29;20498;-81
2023/04/07 08:40:16;;;;;;;0.80;0.80;;;;;;;13.39;29.78;100123.13;4948440;29;20051;-82
2023/04/07 08:42:48;;;;;;;0.90;0.90;;;;;;;13.76;29.35;100131.03;4916777;29;20496;-83
2023/04/07 08:45:17;;;;;;;0.80;0.80;;;;;;;14.15;29.01;100129.41;4950063;29;20054;-81
2023/04/07 08:47:46;;;;;;;0.80;0.80;;;;;;;14.30;28.85;100124.31;4949264;29;20051;-83
2023/04/07 08:50:16;;;;;;;0.80;0.80;;;;;;;14.21;28.64;100123.03;4950564;29;20055;-82
2023/04/07 08:52:54;;;;;;;0.90;0.90;;;;;;;14.38;28.29;100130.38;4951669;28;20052;-82
2023/04/07 08:55:22;;;;;;;0.80;0.80;;;;;;;14.62;28.48;100118.41;4935500;29;20085;-82
2023/04/07 08:57:53;;;;;;;0.70;0.70;;;;;;;15.09;27.89;100122.72;4951895;29;20055;-83
2023/04/07 09:00:20;;;;;;;0.77;0.77;;;;;;;15.22;27.68;100132.44;4934096;29;20518;-83
2023/04/07 09:02:48;;;;;;;0.70;0.70;;;;;;;15.32;27.74;100117.13;4935172;29;20055;-83
2023/04/07 09:05:16;;;;;;;0.80;0.80;;;;;;;15.69;26.90;100130.19;4909422;29;20051;-84
2023/04/07 09:07:43;;;;;;;0.70;0.70;;;;;;;16.07;26.02;100127.69;4951442;29;20118;-82
2023/04/07 09:10:10;;;;;;;0.70;0.70;;;;;;;16.42;26.19;100133.56;4954908;29;20047;-80
2023/04/07 09:12:38;;;;;;;0.70;0.70;;;;;;;16.51;25.67;100122.19;4954720;29;20189;-82
2023/04/07 09:15:07;;;;;;;0.80;0.80;;;;;;;16.63;25.70;100114.69;4949147;29;20130;-81
2023/04/07 09:17:37;;;;;;;0.80;0.80;;;;;;;16.73;25.72;100111.25;4956019;29;20073;-82
2023/04/07 09:20:09;;;;;;;0.70;0.70;;;;;;;16.80;25.07;100120.06;4955484;29;20047;-82
2023/04/07 09:22:42;;;;;;;0.70;0.70;;;;;;;17.02;25.16;100117.28;4938751;29;20055;-82
2023/04/07 09:25:12;;;;;;;0.70;0.70;;;;;;;17.17;25.18;100113.84;4943542;29;20055;-82
2023/04/07 09:27:39;;;;;;;0.70;0.70;;;;;;;17.65;24.47;100109.25;4945999;29;20075;-83
2023/04/07 09:30:15;;;;;;;0.70;0.70;;;;;;;17.92;24.17;100103.69;4936043;29;20166;-82
2023/04/07 09:32:43;;;;;;;0.75;0.75;;;;;;;17.32;24.26;100112.06;4940875;29;20123;-82
2023/04/07 09:35:10;;;;;;;0.70;0.70;;;;;;;17.21;24.29;100110.31;4954895;29;20088;-82
2023/04/07 09:37:37;;;;;;;0.70;0.70;;;;;;;17.36;23.85;100116.97;4955130;29;20109;-82
2023/04/07 09:40:08;;;;;;;0.70;0.70;;;;;;;18.16;23.13;100112.25;4922540;29;20471;-82
2023/04/07 09:42:44;;;;;;;0.70;0.70;;;;;;;18.63;22.77;100103.06;4955041;29;20047;-82
2023/04/07 09:45:13;;;;;;;0.70;0.70;;;;;;;18.71;22.58;100098.97;4932393;29;20051;-82
2023/04/07 09:47:57;;;;;;;0.70;0.70;;;;;;;18.57;22.55;100099.50;4949718;29;20658;-82
2023/04/07 09:50:33;;;;;;;0.70;0.70;;;;;;;18.28;22.62;100103.81;4930070;29;20526;-82
2023/04/07 09:53:02;;;;;;;0.75;0.75;;;;;;;18.03;22.78;100108.13;4935932;29;20585;-81
2023/04/07 09:55:33;;;;;;;0.70;0.70;;;;;;;18.42;22.89;100103.03;4954176;28;20055;-83
2023/04/07 09:58:01;;;;;;;0.70;0.70;;;;;;;19.13;22.24;100114.34;4954861;29;20055;-82
2023/04/07 10:00:28;;;;;;;0.80;0.80;;;;;;;19.14;21.63;100096.84;4949727;29;20065;-81
2023/04/07 10:03:02;;;;;;;0.70;0.70;;;;;;;18.83;22.24;100108.59;4946064;28;20429;-83
2023/04/07 10:05:35;;;;;;;0.70;0.70;;;;;;;19.15;21.81;100114.91;4935133;29;20524;-83
2023/04/07 10:08:05;;;;;;;0.70;0.70;;;;;;;19.31;21.22;100113.78;4954022;29;20043;-82
2023/04/07 10:10:33;;;;;;;0.70;0.70;;;;;;;19.32;21.28;100109.13;4948032;29;20051;-84
2023/04/07 10:13:03;;;;;;;0.70;0.70;;;;;;;18.92;21.51;100106.16;4916661;29;20047;-84
2023/04/07 10:15:31;;;;;;;0.70;0.70;;;;;;;19.42;20.76;100103.63;4953511;29;20044;-84
2023/04/07 10:18:05;;;;;;;0.70;0.70;;;;;;;19.76;20.80;100117.56;4953067;29;20059;-82
2023/04/07 10:20:32;;;;;;;0.70;0.70;;;;;;;19.50;20.92;100116.78;4952620;29;20502;-84
2023/04/07 10:23:48;;;;;;;0.70;0.70;;;;;;;19.61;20.92;100107.44;4938652;29;20062;-82
2023/04/07 10:26:18;;;;;;;0.70;0.70;;;;;;;19.94;20.59;100101.63;4890354;29;20726;-81
2023/04/07 10:28:55;;;;;;;0.80;0.80;;;;;;;20.63;19.72;100100.72;4878013;29;20052;-83
2023/04/07 10:31:22;;;;;;;0.70;0.70;;;;;;;21.03;19.59;100107.00;4890269;29;20081;-82
2023/04/07 10:33:53;;;;;;;0.70;0.70;;;;;;;21.50;19.26;100104.72;4873241;29;20149;-82
2023/04/07 10:36:21;;;;;;;0.60;0.60;;;;;;;21.15;18.95;100112.16;4887581;29;20445;-82
2023/04/07 10:39:06;;;;;;;0.60;0.60;;;;;;;20.48;19.82;100109.03;4889406;29;20087;-82
2023/04/07 10:41:35;;;;;;;0.60;0.60;;;;;;;20.53;19.95;100106.25;4886299;29;20057;-81
2023/04/07 10:44:10;;;;;;;0.60;0.60;;;;;;;20.80;19.40;100107.75;4884052;29;20056;-82
2023/04/07 10:46:47;;;;;;;0.60;0.60;;;;;;;20.61;19.33;100113.94;4887714;29;20053;-83
2023/04/07 10:49:15;;;;;;;0.63;0.63;;;;;;;20.58;18.87;100108.19;4889060;29;20057;-83
2023/04/07 10:52:23;;;;;;;0.70;0.70;;;;;;;20.94;19.27;100115.06;4881598;29;20057;-83
2023/04/07 10:55:27;;;;;;;0.60;0.60;;;;;;;21.11;18.96;100111.06;4883876;29;20060;-84
2023/04/07 10:58:13;;;;;;;0.60;0.60;;;;;;;21.12;19.00;100113.53;4891299;29;20053;-83
2023/04/07 11:00:40;;;;;;;0.70;0.70;;;;;;;21.04;18.87;100116.91;4927664;29;20224;-81
2023/04/07 11:03:13;;;;;;;0.70;0.70;;;;;;;21.34;18.76;100104.00;4919848;29;20506;-82
2023/04/07 11:05:41;;;;;;;0.50;0.50;;;;;;;21.14;18.64;100111.34;4951887;29;20082;-82
2023/04/07 11:08:12;;;;;;;0.60;0.60;;;;;;;20.67;19.06;100101.81;4950379;29;20078;-83
2023/04/07 11:10:39;;;;;;;0.60;0.60;;;;;;;20.72;18.91;100110.00;4946994;29;20840;-81
2023/04/07 11:13:07;;;;;;;0.60;0.60;;;;;;;20.23;19.51;100102.59;4913603;29;20039;-84
2023/04/07 11:15:36;;;;;;;0.60;0.60;;;;;;;19.51;20.29;100098.44;4952798;28;20097;-82
2023/04/07 11:18:15;;;;;;;0.60;0.60;;;;;;;19.24;20.44;100105.03;4950690;29;20070;-83
2023/04/07 11:20:51;;;;;;;0.60;0.60;;;;;;;19.16;20.58;100100.13;4951657;29;20050;-82
2023/04/07 11:23:20;;;;;;;0.60;0.60;;;;;;;19.50;20.19;100097.63;4935456;29;20057;-81
2023/04/07 11:25:48;;;;;;;0.70;0.70;;;;;;;20.01;19.81;100100.22;4951672;29;20051;-82
2023/04/07 11:28:16;;;;;;;0.70;0.70;;;;;;;20.28;19.74;100099.84;4949592;29;20047;-81
2023/04/07 11:30:52;;;;;;;0.70;0.70;;;;;;;21.50;18.86;100094.53;4950122;29;20147;-82
2023/04/07 11:33:22;;;;;;;0.60;0.60;;;;;;;21.69;18.81;100100.09;4951063;29;20051;-82
2023/04/07 11:36:01;;;;;;;0.60;0.60;;;;;;;22.15;18.40;100087.72;4950943;29;20122;-83
2023/04/07 11:38:37;;;;;;;0.60;0.60;;;;;;;21.56;18.71;100093.38;4950567;29;20059;-82
2023/04/07 11:41:12;;;;;;;0.50;0.50;;;;;;;21.10;18.96;100095.72;4951564;29;20059;-82
2023/04/07 11:43:49;;;;;;;0.60;0.60;;;;;;;21.05;18.97;100095.75;4952206;29;20138;-83
2023/04/07 11:46:17;;;;;;;0.50;0.50;;;;;;;20.70;19.13;100092.19;4931763;29;20047;-82
2023/04/07 11:48:46;;;;;;;0.60;0.60;;;;;;;19.98;19.38;100100.78;4949356;29;20047;-81
2023/04/07 11:51:22;;;;;;;0.60;0.60;;;;;;;19.34;19.97;100102.28;4933696;29;20569;-82